M I D A S
Marine Information and Data Acquisition System
Tripno 403 of the Zeeleeuw from 2002-12-03 11:20:06 to 2002-12-03 16:31:27
Back to CruiseResearch ActivitiesStationsMapUnderway DataData graphs

EquipmentUnitsComment
TimeDGPSUTC
LatitudeDGPSDM.mWGS84
LongitudeDGPSDM.mWGS84
HeadingGyrodeg 
SOGDGPSknotsSpeed over ground
COGDGPSdegCourse over ground
DepthEcho soundermeters200 kHz
Missing or incorrect values are displayed as -999
Navigation data collected by the RV Zeeleeuw from 2002-12-03 11:20:06 to 2002-12-03 16:31:27
                                                                                    Next 1000 lines
Time Latitude Longitude Heading SOG COG Depth
2002-12-03 11:20:13 51°13.885 2°55.593 340.2 5.3 334.6 13.5
2002-12-03 11:20:18 51°13.892 2°55.588 340.7 5.3 334.9 13.4
2002-12-03 11:20:22 51°13.898 2°55.584 340.7 5.3 335.8 13.2
2002-12-03 11:20:28 51°13.906 2°55.578 340.2 5.4 335.6 13
2002-12-03 11:20:33 51°13.912 2°55.573 340.2 5.4 335.5 12.9
2002-12-03 11:20:38 51°13.919 2°55.568 340.5 5.4 334.8 13
2002-12-03 11:20:42 51°13.925 2°55.564 340.8 5.5 335 12.9
2002-12-03 11:20:48 51°13.933 2°55.557 340.8 5.5 334.5 13.2
2002-12-03 11:20:53 51°13.94 2°55.552 341 5.5 335 12.9
2002-12-03 11:20:58 51°13.948 2°55.547 341.2 5.6 335.3 13.8
2002-12-03 11:21:03 51°13.955 2°55.542 341.5 5.8 336 13.6
2002-12-03 11:21:08 51°13.963 2°55.536 341.5 6 336.5 13.8
2002-12-03 11:21:13 51°13.971 2°55.531 341 6.2 336 13.6
2002-12-03 11:21:18 51°13.979 2°55.525 340.8 6.3 335.4 13.4
2002-12-03 11:21:22 51°13.985 2°55.52 341 6.4 335.5 13.3
2002-12-03 11:21:28 51°13.996 2°55.513 341.2 6.6 335.8 13.6
2002-12-03 11:21:33 51°14.004 2°55.506 341 6.8 336 13.8
2002-12-03 11:21:38 51°14.013 2°55.5 340.5 6.9 335.9 13.4
2002-12-03 11:21:42 51°14.02 2°55.495 340.5 7 335.6 13.6
2002-12-03 11:21:47 51°14.029 2°55.488 340.8 7.1 335.4 12.8
2002-12-03 11:21:53 51°14.04 2°55.481 340.7 7.1 335.2 13.1
2002-12-03 11:21:58 51°14.049 2°55.474 340.7 7.2 335.1 13
2002-12-03 11:22:02 51°14.057 2°55.468 341.5 7.3 335.2 12.9
2002-12-03 11:22:08 51°14.068 2°55.461 341.8 7.4 335.8 12.4
2002-12-03 11:22:13 51°14.078 2°55.454 341.8 7.4 336.2 12.5
2002-12-03 11:22:18 51°14.087 2°55.447 341.7 7.5 336.6 12.5
2002-12-03 11:22:22 51°14.095 2°55.442 341.2 7.5 336.1 13.1
2002-12-03 11:22:27 51°14.105 2°55.435 341 7.6 336 12.7
2002-12-03 11:22:33 51°14.116 2°55.427 341 7.6 335.6 12.5
2002-12-03 11:22:38 51°14.126 2°55.42 340.8 7.6 335.7 12.6
2002-12-03 11:22:42 51°14.133 2°55.414 340 7.7 334.8 13.1
2002-12-03 11:22:48 51°14.146 2°55.404 339.2 7.9 334.3 12.9
2002-12-03 11:22:53 51°14.156 2°55.395 337.5 8.2 332.8 13.5
2002-12-03 11:22:58 51°14.167 2°55.386 335.8 8.5 332 12.9
2002-12-03 11:23:02 51°14.175 2°55.378 335 8.7 330.3 13.3
2002-12-03 11:23:07 51°14.186 2°55.368 334.7 9 329.8 13.2
2002-12-03 11:23:13 51°14.2 2°55.354 332.8 9.2 328.5 13
2002-12-03 11:23:18 51°14.21 2°55.342 330.3 9.4 327.2 13.1
2002-12-03 11:23:22 51°14.219 2°55.332 328.2 9.5 325 13.1
2002-12-03 11:23:28 51°14.231 2°55.316 326.3 9.6 322.1 13.1
2002-12-03 11:23:33 51°14.241 2°55.301 324.3 9.7 320.2 13
2002-12-03 11:23:38 51°14.251 2°55.287 322.2 9.8 318.8 13
2002-12-03 11:23:43 51°14.261 2°55.271 320.5 9.8 316.6 13
2002-12-03 11:23:48 51°14.271 2°55.255 319 9.9 314.8 13
2002-12-03 11:23:53 51°14.28 2°55.238 317 10 313 13
2002-12-03 11:23:58 51°14.289 2°55.222 316 10 312.1 13
2002-12-03 11:24:03 51°14.298 2°55.205 314.8 10.1 310.8 13
2002-12-03 11:24:08 51°14.307 2°55.187 313.7 10.1 309.9 13
2002-12-03 11:24:13 51°14.316 2°55.169 313 10.2 309 13
2002-12-03 11:24:18 51°14.325 2°55.152 312.7 10.2 308.6 13.1
2002-12-03 11:24:22 51°14.331 2°55.137 312.2 10.2 307.9 13
2002-12-03 11:24:28 51°14.342 2°55.116 311.8 10.2 307.2 12.9
2002-12-03 11:24:33 51°14.35 2°55.098 311.5 10.2 306.9 13
2002-12-03 11:24:38 51°14.358 2°55.08 311.3 10.2 306.5 13.5
2002-12-03 11:24:42 51°14.365 2°55.065 311.3 10.2 306.5 13.6
2002-12-03 11:24:48 51°14.377 2°55.044 312 10.3 307.9 13.4
2002-12-03 11:24:53 51°14.387 2°55.026 313.8 10.5 310 13.5
2002-12-03 11:24:58 51°14.398 2°55.01 316.2 10.6 312.9 13.2
2002-12-03 11:25:02 51°14.407 2°54.998 319.5 10.8 318 13.1
2002-12-03 11:25:08 51°14.423 2°54.981 323 11 323.4 12.9
2002-12-03 11:25:13 51°14.436 2°54.968 324.2 11.2 326.6 12.9
2002-12-03 11:25:18 51°14.449 2°54.954 323.3 11.2 327.5 12.9
2002-12-03 11:25:22 51°14.46 2°54.943 321.7 11.3 326.9 12.9
2002-12-03 11:25:28 51°14.475 2°54.926 320.2 11.2 324.9 12.7
2002-12-03 11:25:33 51°14.487 2°54.91 318.7 11.2 323.1 12.5
2002-12-03 11:25:38 51°14.498 2°54.895 316.8 11.1 320.8 12.5
2002-12-03 11:25:42 51°14.507 2°54.881 314.5 11 318.1 12.7
2002-12-03 11:25:48 51°14.52 2°54.861 312.5 11 316.2 12.4
2002-12-03 11:25:53 51°14.53 2°54.843 310.8 11 314.3 12.7
2002-12-03 11:25:58 51°14.541 2°54.825 309.7 11 313.2 12.5
2002-12-03 11:26:02 51°14.549 2°54.81 309.8 11 312.6 12.4
2002-12-03 11:26:08 51°14.561 2°54.789 310.8 11 313 -999
2002-12-03 11:26:12 51°14.57 2°54.775 310.8 11 313.1 12.2
2002-12-03 11:26:18 51°14.582 2°54.753 310 11 312.8 12.4
2002-12-03 11:26:22 51°14.59 2°54.739 309.5 11 312 12.4
2002-12-03 11:26:28 51°14.603 2°54.717 309.7 11.1 311.8 12.5
2002-12-03 11:26:33 51°14.613 2°54.699 309.7 11.2 311.8 12.5
2002-12-03 11:26:38 51°14.624 2°54.68 310.2 11.3 312.1 12.2
2002-12-03 11:26:42 51°14.632 2°54.665 310.5 11.4 312.5 12.1
2002-12-03 11:26:48 51°14.645 2°54.643 310.5 11.5 312.7 12.4
2002-12-03 11:26:53 51°14.656 2°54.624 310.2 11.6 312.4 12.3
2002-12-03 11:26:58 51°14.667 2°54.604 309.7 11.7 312.1 12.1
2002-12-03 11:27:02 51°14.676 2°54.589 309.7 11.8 311.8 12.3
2002-12-03 11:27:08 51°14.689 2°54.566 309.7 11.8 311.8 12.3
2002-12-03 11:27:13 51°14.7 2°54.546 309.8 11.9 311.6 12.3
2002-12-03 11:27:18 51°14.711 2°54.526 309.3 12 311.5 12.5
2002-12-03 11:27:22 51°14.72 2°54.51 309.7 12 311.4 12.3
2002-12-03 11:27:28 51°14.733 2°54.486 308.3 12 311.1 12.6
2002-12-03 11:27:33 51°14.744 2°54.465 307 12 310.1 12.5
2002-12-03 11:27:38 51°14.754 2°54.444 306 12 309.4 12.4
2002-12-03 11:27:43 51°14.764 2°54.423 305.8 12 308.8 12.5
2002-12-03 11:27:48 51°14.775 2°54.403 307.3 12.1 308.9 12.8
2002-12-03 11:27:53 51°14.786 2°54.383 308.2 12.1 309.8 12.7
2002-12-03 11:27:58 51°14.797 2°54.362 308.2 12.1 310.1 12.5
2002-12-03 11:28:02 51°14.805 2°54.346 306.8 12.1 310.2 12.6
2002-12-03 11:28:08 51°14.818 2°54.321 306.3 12.1 309.2 12.5
2002-12-03 11:28:13 51°14.829 2°54.3 305.8 12.1 309.1 12.5
2002-12-03 11:28:18 51°14.839 2°54.279 305.2 12.1 308.5 12.3
2002-12-03 11:28:22 51°14.847 2°54.262 304.8 12.1 307.9 12.2
2002-12-03 11:28:28 51°14.859 2°54.237 304.5 12.1 307.4 12.2
2002-12-03 11:28:33 51°14.869 2°54.215 304 12.1 306.5 12.1
2002-12-03 11:28:38 51°14.879 2°54.193 303.8 12.1 306.1 11.9
2002-12-03 11:28:42 51°14.886 2°54.176 303.5 12.1 305.2 11.6
2002-12-03 11:28:48 51°14.898 2°54.15 303.5 12.1 304.7 12.1
2002-12-03 11:28:53 51°14.907 2°54.127 303.7 12.1 304.5 11.3
2002-12-03 11:28:58 51°14.917 2°54.105 304.3 12.1 304.9 11.7
2002-12-03 11:29:02 51°14.925 2°54.087 304.5 12.2 304.9 11.9
2002-12-03 11:29:07 51°14.934 2°54.066 305 12.2 305.1 11.9
2002-12-03 11:29:13 51°14.946 2°54.039 305.3 12.2 305.5 11.9
2002-12-03 11:29:18 51°14.956 2°54.017 305.7 12.2 305.7 11.9
2002-12-03 11:29:22 51°14.964 2°53.999 304.8 12.2 305.4 12.3
2002-12-03 11:29:28 51°14.975 2°53.972 303 12.2 303.8 12.3
2002-12-03 11:29:33 51°14.984 2°53.949 301.8 12.3 302.6 12.3
2002-12-03 11:29:38 51°14.993 2°53.926 301.3 12.3 302.4 12.6
2002-12-03 11:29:42 51°14.999 2°53.907 300.8 12.3 301.7 12.6
2002-12-03 11:29:48 51°15.009 2°53.878 300.2 12.4 300.7 12.4
2002-12-03 11:29:53 51°15.018 2°53.854 299.8 12.5 299.7 12.2
2002-12-03 11:29:58 51°15.026 2°53.829 299.7 12.6 299.4 12.4
2002-12-03 11:30:03 51°15.036 2°53.805 300 12.6 299.3 12.2
2002-12-03 11:30:08 51°15.045 2°53.781 300.2 12.7 300.2 12.4
2002-12-03 11:30:13 51°15.054 2°53.756 300.3 12.7 300.4 12.5
2002-12-03 11:30:18 51°15.063 2°53.732 300.2 12.8 300.5 12.1
2002-12-03 11:30:22 51°15.07 2°53.712 300 12.8 300.4 12.4
2002-12-03 11:30:28 51°15.08 2°53.683 299.5 12.8 299.9 12.7
2002-12-03 11:30:33 51°15.089 2°53.659 299.2 12.8 299.7 12.1
2002-12-03 11:30:38 51°15.097 2°53.634 299.3 12.8 299.9 12.2
2002-12-03 11:30:42 51°15.104 2°53.615 299.5 12.8 300.2 12.6
2002-12-03 11:30:48 51°15.115 2°53.586 300 12.8 300.6 12.6
2002-12-03 11:30:53 51°15.125 2°53.562 300.2 12.8 300.4 12.5
2002-12-03 11:30:58 51°15.135 2°53.537 299.3 12.7 300.4 12.3
2002-12-03 11:31:03 51°15.144 2°53.512 298.5 12.8 299.6 12.3
2002-12-03 11:31:08 51°15.152 2°53.487 297.7 12.7 298.7 12.7
2002-12-03 11:31:13 51°15.16 2°53.463 297 12.7 297.8 12.7
2002-12-03 11:31:18 51°15.167 2°53.438 296.7 12.7 297 12.6
2002-12-03 11:31:22 51°15.174 2°53.418 296.5 12.7 296.6 12.6
2002-12-03 11:31:28 51°15.183 2°53.387 296.7 12.7 296.4 12.7
2002-12-03 11:31:33 51°15.192 2°53.362 295.7 12.7 296.5 12.9
2002-12-03 11:31:38 51°15.199 2°53.337 294.5 12.6 295.3 12.8
2002-12-03 11:31:42 51°15.205 2°53.316 293.5 12.6 293.8 13.1
2002-12-03 11:31:48 51°15.214 2°53.285 292.7 12.6 293 13.1
2002-12-03 11:31:53 51°15.221 2°53.26 292.2 12.6 292.5 12.9
2002-12-03 11:31:58 51°15.228 2°53.234 291.8 12.6 292.1 13.1
2002-12-03 11:32:03 51°15.235 2°53.208 291.5 12.5 291.8 13.1
2002-12-03 11:32:08 51°15.241 2°53.183 291.5 12.5 291.5 12.9
2002-12-03 11:32:12 51°15.246 2°53.162 291.8 12.5 291.8 12.7
2002-12-03 11:32:18 51°15.254 2°53.132 291.8 12.5 291.8 13.1
2002-12-03 11:32:23 51°15.26 2°53.106 291.8 12.5 291.9 13.3
2002-12-03 11:32:28 51°15.267 2°53.081 291.3 12.4 291.7 13.4
2002-12-03 11:32:33 51°15.272 2°53.055 289.7 12.4 290.4 13.4
2002-12-03 11:32:38 51°15.278 2°53.029 288.7 12.4 289.3 13.3
2002-12-03 11:32:42 51°15.282 2°53.008 288 12.3 288.1 13.5
2002-12-03 11:32:48 51°15.288 2°52.977 287.5 12.3 287.9 13.6
2002-12-03 11:32:53 51°15.292 2°52.951 287 12.3 287.5 13.2
2002-12-03 11:32:58 51°15.298 2°52.925 287 12.3 287.4 13.8
2002-12-03 11:33:02 51°15.301 2°52.905 287 12.3 287.4 13.8
2002-12-03 11:33:08 51°15.307 2°52.874 287 12.3 287.3 13.8
2002-12-03 11:33:13 51°15.312 2°52.847 286.5 12.3 287 13.5
2002-12-03 11:33:17 51°15.316 2°52.826 286.3 12.3 286.8 14.2
2002-12-03 11:33:22 51°15.321 2°52.801 286.8 12.3 286.8 14
2002-12-03 11:33:28 51°15.327 2°52.77 287.2 12.3 287.6 13.6
2002-12-03 11:33:33 51°15.333 2°52.744 287.5 12.3 288 14.1
2002-12-03 11:33:38 51°15.339 2°52.719 287.5 12.3 288.3 13.7
2002-12-03 11:33:42 51°15.343 2°52.698 287 12.2 288.1 14.2
2002-12-03 11:33:48 51°15.349 2°52.667 287 12.2 287.6 14.2
2002-12-03 11:33:53 51°15.354 2°52.641 286.8 12.2 287.6 13.9
2002-12-03 11:33:58 51°15.359 2°52.615 286.7 12.2 287.4 14.2
2002-12-03 11:34:02 51°15.363 2°52.595 286.8 12.2 287.3 14.3
2002-12-03 11:34:08 51°15.369 2°52.563 286.8 12.2 287.3 14.1
2002-12-03 11:34:13 51°15.374 2°52.537 286.8 12.2 287.5 14.3
2002-12-03 11:34:18 51°15.378 2°52.512 285.5 12.2 287.1 14.4
2002-12-03 11:34:22 51°15.382 2°52.491 284.3 12.2 285.5 14.4
2002-12-03 11:34:28 51°15.388 2°52.46 283.8 12.3 284.8 13.7
2002-12-03 11:34:33 51°15.392 2°52.433 283.2 12.3 283.9 14.2
2002-12-03 11:34:38 51°15.396 2°52.407 283.2 12.3 283.8 14.5
2002-12-03 11:34:42 51°15.398 2°52.386 282.5 12.2 282.9 14.4
2002-12-03 11:34:48 51°15.402 2°52.355 281.2 12.3 282.5 14.2
2002-12-03 11:34:53 51°15.405 2°52.328 280 12.2 280.9 14.5
2002-12-03 11:34:58 51°15.407 2°52.301 279.8 12.2 280.3 14.4
2002-12-03 11:35:02 51°15.41 2°52.28 279.2 12.2 279.8 14.7
2002-12-03 11:35:08 51°15.413 2°52.248 279 12.2 279.5 14.5
2002-12-03 11:35:12 51°15.415 2°52.227 278.7 12.2 278.9 14.5
2002-12-03 11:35:18 51°15.418 2°52.195 278.5 12.1 278.8 14.7
2002-12-03 11:35:22 51°15.419 2°52.174 276.5 12.1 277.7 14.8
2002-12-03 11:35:28 51°15.421 2°52.142 275.8 12.1 276.3 14.7
2002-12-03 11:35:33 51°15.422 2°52.116 274.7 12.1 275.3 14.5
2002-12-03 11:35:38 51°15.423 2°52.089 274.3 12.1 274.1 14.8
2002-12-03 11:35:42 51°15.424 2°52.068 274.2 12.1 274.1 14.9
2002-12-03 11:35:48 51°15.426 2°52.036 274 12 273.7 13.9
2002-12-03 11:35:53 51°15.427 2°52.009 273.5 12 273.5 14.9
2002-12-03 11:35:58 51°15.427 2°51.982 271.8 12.1 272.4 14.7
2002-12-03 11:36:02 51°15.427 2°51.961 271 12.1 270.9 14.6
2002-12-03 11:36:08 51°15.427 2°51.929 270.5 12 269.9 15
2002-12-03 11:36:13 51°15.427 2°51.903 270 12 269.6 14.6
2002-12-03 11:36:18 51°15.427 2°51.876 269.3 12 269.1 14.9
2002-12-03 11:36:22 51°15.426 2°51.855 269 12.1 268.6 15.1
2002-12-03 11:36:28 51°15.426 2°51.824 269.3 12.1 268.6 15.1
2002-12-03 11:36:33 51°15.426 2°51.797 269.5 12.1 268.9 15.3
2002-12-03 11:36:38 51°15.425 2°51.771 269.8 12.1 269.1 15.1
2002-12-03 11:36:42 51°15.425 2°51.749 269.8 12.1 269.2 15.2
2002-12-03 11:36:48 51°15.424 2°51.718 268.8 12.1 268.5 15.2
2002-12-03 11:36:52 51°15.424 2°51.697 268.3 12.1 268.1 15.3
2002-12-03 11:36:58 51°15.422 2°51.665 267.8 12.2 267.3 15
2002-12-03 11:37:03 51°15.422 2°51.637 267.8 12.2 266.9 15.1
2002-12-03 11:37:08 51°15.421 2°51.609 267.7 12.2 266.7 14.9
2002-12-03 11:37:13 51°15.42 2°51.581 267.3 12.2 266.5 15.2
2002-12-03 11:37:18 51°15.419 2°51.554 267.5 12.2 266.3 15.4
2002-12-03 11:37:22 51°15.418 2°51.532 267.7 12.2 266.6 15.2
2002-12-03 11:37:28 51°15.417 2°51.5 267.7 12.2 266.4 15.4
2002-12-03 11:37:33 51°15.415 2°51.474 266.3 12.2 265.8 15.1
2002-12-03 11:37:38 51°15.414 2°51.447 265.5 12.2 264.8 15.4
2002-12-03 11:37:42 51°15.411 2°51.426 264.7 12.2 264.4 15.3
2002-12-03 11:37:48 51°15.409 2°51.395 264.2 12.1 262.9 15.4
2002-12-03 11:37:53 51°15.406 2°51.369 263.5 12.1 262.2 15
2002-12-03 11:37:58 51°15.404 2°51.342 263.5 12.1 262.3 15.2
2002-12-03 11:38:02 51°15.403 2°51.321 263.3 12.1 262.1 15.5
2002-12-03 11:38:08 51°15.4 2°51.29 264 12.2 262.2 15.4
2002-12-03 11:38:13 51°15.398 2°51.263 263.7 12.1 262 15.5
2002-12-03 11:38:18 51°15.395 2°51.237 262.2 12.1 261.4 15.5
2002-12-03 11:38:22 51°15.393 2°51.216 260.8 12.1 260 15.6
2002-12-03 11:38:28 51°15.389 2°51.185 260 12.1 258.7 15.5
2002-12-03 11:38:33 51°15.385 2°51.159 259.5 12.1 257.6 15.5
2002-12-03 11:38:38 51°15.381 2°51.133 258 12.1 256.6 15.5
2002-12-03 11:38:42 51°15.377 2°51.113 256.8 12.1 255.1 15.7
2002-12-03 11:38:48 51°15.372 2°51.082 256.5 12.1 254.3 15.6
2002-12-03 11:38:53 51°15.367 2°51.056 256 12.1 254.3 15.7
2002-12-03 11:38:58 51°15.362 2°51.03 255.7 12 253.7 15.6
2002-12-03 11:39:02 51°15.358 2°51.01 255.7 12.1 253.7 15.6
2002-12-03 11:39:08 51°15.352 2°50.978 255.2 12.1 253.2 15.6
2002-12-03 11:39:13 51°15.346 2°50.953 255.5 12.1 253.4 15.7
2002-12-03 11:39:18 51°15.34 2°50.927 255.7 12.1 253.7 15.6
2002-12-03 11:39:22 51°15.336 2°50.906 255.7 12.1 253.6 15.6
2002-12-03 11:39:28 51°15.331 2°50.876 255.7 12.1 253.6 15.4
2002-12-03 11:39:33 51°15.326 2°50.85 255.5 12.1 253.3 15.6
2002-12-03 11:39:38 51°15.321 2°50.824 255.8 12.1 253.6 15.7
2002-12-03 11:39:42 51°15.318 2°50.803 256.3 12.1 253.6 15.5
2002-12-03 11:39:48 51°15.312 2°50.772 256.2 12.2 254.1 15.5
2002-12-03 11:39:53 51°15.306 2°50.747 255.7 12.2 253.5 15.7
2002-12-03 11:39:58 51°15.3 2°50.721 256 12.2 253.6 15.7
2002-12-03 11:40:02 51°15.296 2°50.7 256.3 12.2 253.7 15.7
2002-12-03 11:40:08 51°15.291 2°50.669 256.5 12.2 254.4 15.7
2002-12-03 11:40:13 51°15.288 2°50.643 256.5 12.2 254.8 15.5
2002-12-03 11:40:18 51°15.284 2°50.617 256.2 12.2 254.6 15.6
2002-12-03 11:40:22 51°15.28 2°50.596 256.3 12.2 254.6 15.2
2002-12-03 11:40:28 51°15.275 2°50.565 256 12.2 254.3 15.7
2002-12-03 11:40:33 51°15.269 2°50.539 255.7 12.2 254 15.6
2002-12-03 11:40:38 51°15.263 2°50.513 255.2 12.2 253.6 15.5
2002-12-03 11:40:42 51°15.258 2°50.492 255.5 12.1 253.4 15.7
2002-12-03 11:40:48 51°15.252 2°50.462 256.2 12.1 253.8 15.7
2002-12-03 11:40:53 51°15.248 2°50.436 256 12.1 253.7 15.7
2002-12-03 11:40:58 51°15.244 2°50.41 256.2 12.1 253.9 15.2
2002-12-03 11:41:02 51°15.241 2°50.39 256.5 12.1 254.2 15.7
2002-12-03 11:41:08 51°15.238 2°50.359 256.7 12.1 254.3 15.5
2002-12-03 11:41:13 51°15.235 2°50.334 256.7 12.1 254.4 15.7
2002-12-03 11:41:18 51°15.231 2°50.308 256.3 12.1 254 15.7
2002-12-03 11:41:22 51°15.226 2°50.287 255.8 12.1 253.9 15.4
2002-12-03 11:41:28 51°15.22 2°50.256 256.2 12.1 254.2 15.7
2002-12-03 11:41:33 51°15.215 2°50.231 255.8 12.1 254 15.5
2002-12-03 11:41:38 51°15.21 2°50.205 256.3 12.1 253.8 15.7
2002-12-03 11:41:42 51°15.207 2°50.184 256.3 12.1 254.3 15.5
2002-12-03 11:41:48 51°15.201 2°50.154 256.2 12.1 253.8 15.5
2002-12-03 11:41:53 51°15.196 2°50.128 256.2 12.2 253.9 15.6
2002-12-03 11:41:58 51°15.192 2°50.102 255.7 12.1 253.5 15.6
2002-12-03 11:42:02 51°15.187 2°50.082 256 12.1 253.6 15.7
2002-12-03 11:42:08 51°15.181 2°50.051 256.5 12.1 254.1 15.7
2002-12-03 11:42:13 51°15.177 2°50.025 256.5 12.1 253.8 15.6
2002-12-03 11:42:18 51°15.172 2°49.999 256.5 12.1 253.9 15.6
2002-12-03 11:42:22 51°15.168 2°49.979 256.3 12.2 253.6 15.6
2002-12-03 11:42:28 51°15.163 2°49.948 256.2 12.2 253.5 15.5
2002-12-03 11:42:33 51°15.158 2°49.922 256.2 12.2 253.5 15.7
2002-12-03 11:42:38 51°15.153 2°49.896 256 12.2 253.5 15.7
2002-12-03 11:42:42 51°15.15 2°49.876 256.2 12.2 253.5 15.4
2002-12-03 11:42:48 51°15.144 2°49.845 256.3 12.2 253.8 15.5
2002-12-03 11:42:53 51°15.141 2°49.819 256.3 12.2 254 15.5
2002-12-03 11:42:58 51°15.138 2°49.793 256.5 12.2 254.1 15.6
2002-12-03 11:43:02 51°15.134 2°49.773 256.8 12.2 254.5 15.5
2002-12-03 11:43:08 51°15.129 2°49.743 257.2 12.2 254.8 15
2002-12-03 11:43:13 51°15.125 2°49.717 257.7 12.2 255.1 15.7
2002-12-03 11:43:18 51°15.121 2°49.69 257.5 12.2 255.2 15.6
2002-12-03 11:43:22 51°15.118 2°49.669 257.8 12.2 255.4 15.3
2002-12-03 11:43:28 51°15.113 2°49.638 257.5 12.2 255.4 15.6
2002-12-03 11:43:33 51°15.109 2°49.612 257.7 12.2 255.3 15.6
2002-12-03 11:43:38 51°15.105 2°49.586 257.2 12.2 255.2 15.6
2002-12-03 11:43:42 51°15.102 2°49.565 257.3 12.2 255.1 15.6
2002-12-03 11:43:48 51°15.097 2°49.534 257.5 12.2 255.4 15.7
2002-12-03 11:43:53 51°15.093 2°49.508 257.3 12.2 255.4 15.7
2002-12-03 11:43:58 51°15.089 2°49.481 257 12.2 255 15.2
2002-12-03 11:44:02 51°15.085 2°49.46 257.3 12.2 255 15.8
2002-12-03 11:44:08 51°15.08 2°49.429 257.7 12.2 254.9 15.5
2002-12-03 11:44:13 51°15.076 2°49.403 257.7 12.2 255.2 15.3
2002-12-03 11:44:17 51°15.072 2°49.382 257.8 12.2 255.2 15.6
2002-12-03 11:44:23 51°15.067 2°49.351 257.5 12.2 255.2 15.6
2002-12-03 11:44:28 51°15.063 2°49.325 256.8 12.2 254.8 15.5
2002-12-03 11:44:33 51°15.059 2°49.299 257.5 12.2 254.7 15.2
2002-12-03 11:44:38 51°15.054 2°49.272 257.5 12.2 254.9 15.6
2002-12-03 11:44:42 51°15.051 2°49.251 257.7 12.2 255 15.6
2002-12-03 11:44:48 51°15.046 2°49.22 257.7 12.2 255.1 15.6
2002-12-03 11:44:53 51°15.042 2°49.194 257.8 12.2 255.2 15.5
2002-12-03 11:44:58 51°15.038 2°49.167 258.7 12.3 255.7 15.2
2002-12-03 11:45:02 51°15.035 2°49.146 261.7 12.2 257.6 15.6
2002-12-03 11:45:08 51°15.032 2°49.113 263.7 12.3 260.7 15.2
2002-12-03 11:45:13 51°15.03 2°49.086 265.7 12.3 262.8 15.5
2002-12-03 11:45:18 51°15.028 2°49.059 266.8 12.3 264.5 15.6
2002-12-03 11:45:23 51°15.027 2°49.031 267.5 12.3 265.5 15.5
2002-12-03 11:45:28 51°15.026 2°49.005 268.2 12.4 266.4 15.5
2002-12-03 11:45:33 51°15.025 2°48.977 268.8 12.4 266.5 15.5
2002-12-03 11:45:38 51°15.024 2°48.95 269 12.4 267.1 15.4
2002-12-03 11:45:42 51°15.023 2°48.928 268.5 12.4 266.8 15.3
2002-12-03 11:45:48 51°15.022 2°48.895 268.7 12.4 266.8 15.3
2002-12-03 11:45:53 51°15.021 2°48.867 268.5 12.4 266.6 15.4
2002-12-03 11:45:58 51°15.02 2°48.84 268.5 12.4 266.9 15.5
2002-12-03 11:46:02 51°15.02 2°48.818 268.5 12.4 266.8 15.2
2002-12-03 11:46:08 51°15.019 2°48.785 268.2 12.4 266.5 15.4
2002-12-03 11:46:13 51°15.019 2°48.758 268 12.4 266.4 15.2
2002-12-03 11:46:18 51°15.018 2°48.731 268.2 12.4 266.3 15.3
2002-12-03 11:46:22 51°15.018 2°48.709 268.5 12.4 266.4 15.3
2002-12-03 11:46:28 51°15.017 2°48.676 268.3 12.4 266.4 15.4
2002-12-03 11:46:33 51°15.016 2°48.649 268.2 12.4 266.5 15.5
2002-12-03 11:46:38 51°15.015 2°48.621 268.3 12.4 266.6 15.4
2002-12-03 11:46:42 51°15.014 2°48.6 268.2 12.4 266.2 15.4
2002-12-03 11:46:48 51°15.012 2°48.567 267.5 12.4 266.1 15.2
2002-12-03 11:46:53 51°15.01 2°48.54 265.2 12.3 264.3 15.4
2002-12-03 11:46:58 51°15.006 2°48.513 264 12.3 262.7 15.2
2002-12-03 11:47:02 51°15.002 2°48.491 262.7 12.3 261.3 15.6
2002-12-03 11:47:08 51°14.998 2°48.459 262.3 12.3 260.3 15.1
2002-12-03 11:47:13 51°14.996 2°48.433 262.2 12.3 260.2 15.6
2002-12-03 11:47:18 51°14.994 2°48.406 262.5 12.3 259.9 15.2
2002-12-03 11:47:22 51°14.992 2°48.385 262.8 12.3 260.7 15.3
2002-12-03 11:47:28 51°14.988 2°48.353 263 12.3 260.6 15.6
2002-12-03 11:47:33 51°14.985 2°48.326 263.2 12.3 260.9 15.6
2002-12-03 11:47:38 51°14.982 2°48.299 263.2 12.3 260.4 15.5
2002-12-03 11:47:42 51°14.98 2°48.278 263 12.3 260.9 15.7
2002-12-03 11:47:48 51°14.976 2°48.246 262.7 12.3 260.7 15.6
2002-12-03 11:47:53 51°14.974 2°48.219 262.5 12.3 260.5 15.3
2002-12-03 11:47:58 51°14.971 2°48.192 262.5 12.3 260.5 15.7
2002-12-03 11:48:02 51°14.969 2°48.171 262.8 12.3 260.8 15.7
2002-12-03 11:48:08 51°14.966 2°48.139 262.7 12.3 260.6 15.5
2002-12-03 11:48:13 51°14.964 2°48.112 263 12.3 260.9 15.8
2002-12-03 11:48:18 51°14.961 2°48.086 262.7 12.3 261.1 15.5
2002-12-03 11:48:22 51°14.958 2°48.065 261.7 12.2 260.7 15.7
2002-12-03 11:48:28 51°14.954 2°48.033 260.7 12.2 259.5 15.6
2002-12-03 11:48:33 51°14.951 2°48.007 259.8 12.2 257.8 15.6
2002-12-03 11:48:38 51°14.947 2°47.981 259.7 12.2 257.2 15.3
2002-12-03 11:48:42 51°14.944 2°47.96 259.7 12.2 256.7 15.4
2002-12-03 11:48:48 51°14.939 2°47.929 259.3 12.1 256.8 15.7
2002-12-03 11:48:53 51°14.936 2°47.903 259.2 12.1 256.5 15.5
2002-12-03 11:48:58 51°14.932 2°47.877 259 12.2 256.9 15.5
2002-12-03 11:49:02 51°14.929 2°47.856 259.5 12.2 256.7 15.2
2002-12-03 11:49:07 51°14.925 2°47.829 259.3 12.2 257.2 15.4
2002-12-03 11:49:13 51°14.921 2°47.798 259 12.1 256.6 15.6
2002-12-03 11:49:18 51°14.917 2°47.772 259.3 12.1 257 15.5
2002-12-03 11:49:22 51°14.914 2°47.751 259.5 12.2 256.7 15.7
2002-12-03 11:49:28 51°14.91 2°47.72 259.5 12.2 257.2 15.6
2002-12-03 11:49:33 51°14.906 2°47.694 259.8 12.2 257.6 15.7
2002-12-03 11:49:38 51°14.902 2°47.667 260 12.2 257.7 15.6
2002-12-03 11:49:42 51°14.9 2°47.646 260.3 12.2 257.6 15.7
2002-12-03 11:49:48 51°14.896 2°47.615 260 12.2 258.1 15.3
2002-12-03 11:49:53 51°14.892 2°47.589 259.5 12.1 257.8 15.5
2002-12-03 11:49:58 51°14.888 2°47.563 259.2 12.1 257.1 15.6
2002-12-03 11:50:02 51°14.885 2°47.542 259.2 12.2 257 15.6
2002-12-03 11:50:08 51°14.88 2°47.511 259 12.2 256.4 15.4
2002-12-03 11:50:12 51°14.878 2°47.49 259.3 12.1 257.1 15.5
2002-12-03 11:50:18 51°14.873 2°47.458 259.3 12.1 257.1 15.7
2002-12-03 11:50:22 51°14.87 2°47.437 259.5 12.2 257.4 15.4
2002-12-03 11:50:28 51°14.866 2°47.406 259.8 12.2 257.5 15.7
2002-12-03 11:50:34 51°14.862 2°47.375 260 12.2 257.4 15.5
2002-12-03 11:50:38 51°14.859 2°47.354 260.2 12.1 257.8 15.5
2002-12-03 11:50:42 51°14.856 2°47.333 260.2 12.2 257.8 15.4
2002-12-03 11:50:48 51°14.852 2°47.301 260.3 12.2 258.1 15.6
2002-12-03 11:50:53 51°14.848 2°47.275 259.7 12.2 257.5 15.5
2002-12-03 11:50:58 51°14.844 2°47.249 259.5 12.2 257.4 15.3
2002-12-03 11:51:02 51°14.841 2°47.228 259.2 12.2 256.9 15.4
2002-12-03 11:51:08 51°14.836 2°47.197 259.5 12.2 257.2 15.2
2002-12-03 11:51:13 51°14.832 2°47.171 259.3 12.2 257 15.3
2002-12-03 11:51:18 51°14.829 2°47.145 259.7 12.2 256.8 14.9
2002-12-03 11:51:22 51°14.826 2°47.123 259.7 12.2 257.3 14.9
2002-12-03 11:51:28 51°14.822 2°47.092 259.7 12.2 257.4 14.5
2002-12-03 11:51:32 51°14.818 2°47.071 260 12.2 256.9 14.8
2002-12-03 11:51:38 51°14.814 2°47.04 260 12.2 256.8 14.8
2002-12-03 11:51:43 51°14.811 2°47.013 259.5 12.2 257.1 14.5
2002-12-03 11:51:48 51°14.807 2°46.987 259.5 12.2 257.1 14.9
2002-12-03 11:51:53 51°14.804 2°46.961 259.5 12.2 257.5 14
2002-12-03 11:51:58 51°14.8 2°46.934 259.3 12.2 257.5 14.1
2002-12-03 11:52:02 51°14.797 2°46.913 259.8 12.3 257.3 14.1
2002-12-03 11:52:08 51°14.792 2°46.881 259.8 12.4 257.3 14
2002-12-03 11:52:13 51°14.789 2°46.854 260.2 12.4 257.4 14.4
2002-12-03 11:52:18 51°14.785 2°46.827 260.2 12.4 257.6 14.1
2002-12-03 11:52:23 51°14.782 2°46.8 259.8 12.5 257.7 14.3
2002-12-03 11:52:28 51°14.778 2°46.773 259.2 12.5 257.4 13.7
2002-12-03 11:52:33 51°14.774 2°46.746 259.3 12.6 257 13.9
2002-12-03 11:52:38 51°14.77 2°46.719 259.5 12.6 257.1 13.8
2002-12-03 11:52:42 51°14.767 2°46.697 259.3 12.6 256.7 13.4
2002-12-03 11:52:48 51°14.763 2°46.665 260 12.6 256.9 13.6
2002-12-03 11:52:53 51°14.758 2°46.637 259.3 12.6 257 13.3
2002-12-03 11:52:58 51°14.754 2°46.61 259.8 12.7 257.3 13.3
2002-12-03 11:53:02 51°14.751 2°46.589 259.3 12.6 256.7 12.9
2002-12-03 11:53:08 51°14.747 2°46.556 259.7 12.7 257.1 13.1
2002-12-03 11:53:13 51°14.743 2°46.528 260 12.7 257.1 13
2002-12-03 11:53:18 51°14.739 2°46.501 260 12.7 257.1 12.6
2002-12-03 11:53:22 51°14.736 2°46.479 259.3 12.6 256.9 12.7
2002-12-03 11:53:28 51°14.732 2°46.446 260 12.7 257.3 12.7
2002-12-03 11:53:33 51°14.727 2°46.419 259.5 12.7 257.2 12.5
2002-12-03 11:53:38 51°14.724 2°46.392 259.8 12.7 257.2 12.1
2002-12-03 11:53:42 51°14.721 2°46.37 259.7 12.7 256.9 12.3
2002-12-03 11:53:48 51°14.717 2°46.337 259.8 12.7 257.4 11.8
2002-12-03 11:53:53 51°14.713 2°46.31 260 12.7 257.7 11.9
2002-12-03 11:53:58 51°14.709 2°46.282 260.2 12.8 258 11.8
2002-12-03 11:54:02 51°14.706 2°46.26 260.2 12.7 257.8 11.6
2002-12-03 11:54:08 51°14.701 2°46.227 260.2 12.7 257.7 12
2002-12-03 11:54:13 51°14.698 2°46.2 260 12.7 257.8 11.9
2002-12-03 11:54:18 51°14.694 2°46.173 259.3 12.7 257.9 11.8
2002-12-03 11:54:22 51°14.691 2°46.151 259.5 12.7 257.1 11.6
2002-12-03 11:54:28 51°14.686 2°46.118 259.7 12.7 256.9 11.7
2002-12-03 11:54:33 51°14.682 2°46.091 259.3 12.7 256.5 10.9
2002-12-03 11:54:38 51°14.678 2°46.063 260 12.7 257.2 11.5
2002-12-03 11:54:42 51°14.676 2°46.041 260 12.7 257.8 11.2
2002-12-03 11:54:48 51°14.671 2°46.008 260 12.7 258 11.3
2002-12-03 11:54:53 51°14.667 2°45.981 260.2 12.7 258 11.2
2002-12-03 11:54:58 51°14.663 2°45.953 259.8 12.7 258.1 11.3
2002-12-03 11:55:02 51°14.661 2°45.931 259.8 12.8 257.9 11.2
2002-12-03 11:55:08 51°14.655 2°45.898 259.7 12.8 257.5 11.2
2002-12-03 11:55:13 51°14.652 2°45.87 259.7 12.8 257.1 11
2002-12-03 11:55:18 51°14.648 2°45.843 259.8 12.8 257.3 11.2
2002-12-03 11:55:22 51°14.645 2°45.82 260 12.8 257.5 10.8
2002-12-03 11:55:28 51°14.64 2°45.787 260.3 12.8 257.4 11.2
2002-12-03 11:55:33 51°14.637 2°45.759 260.2 12.8 257.8 11.1
2002-12-03 11:55:38 51°14.633 2°45.732 260 12.8 257.6 10.8
2002-12-03 11:55:42 51°14.63 2°45.709 260.7 12.8 258.3 11.3
2002-12-03 11:55:48 51°14.625 2°45.676 261 12.8 258.5 11.1
2002-12-03 11:55:53 51°14.622 2°45.649 261.7 12.9 259.3 11.4
2002-12-03 11:55:58 51°14.618 2°45.621 261.5 12.8 259.4 11.5
2002-12-03 11:56:02 51°14.616 2°45.599 261.5 12.8 259.6 11.7
2002-12-03 11:56:08 51°14.612 2°45.565 261.7 12.9 259.8 11.4
2002-12-03 11:56:13 51°14.609 2°45.537 261.8 12.9 260 11.4
2002-12-03 11:56:18 51°14.606 2°45.508 262.2 12.9 260.2 11.7
2002-12-03 11:56:22 51°14.604 2°45.486 262.7 12.9 260.2 11.9
2002-12-03 11:56:28 51°14.6 2°45.452 262 12.9 260.1 11.8
2002-12-03 11:56:33 51°14.597 2°45.424 262.2 12.9 259.9 12.1
2002-12-03 11:56:38 51°14.594 2°45.396 262 12.9 260 12.3
2002-12-03 11:56:42 51°14.591 2°45.374 262 12.9 259.4 12.4
2002-12-03 11:56:48 51°14.588 2°45.34 262.3 12.9 259.6 12.6
2002-12-03 11:56:53 51°14.585 2°45.312 261.8 12.8 259.7 12.5
2002-12-03 11:56:58 51°14.582 2°45.284 262 12.8 260 12.8
2002-12-03 11:57:02 51°14.58 2°45.262 261.5 12.8 259.9 13
2002-12-03 11:57:08 51°14.576 2°45.228 261.5 12.8 259.8 13.2
2002-12-03 11:57:13 51°14.572 2°45.201 261.2 12.8 259.7 12.9
2002-12-03 11:57:18 51°14.569 2°45.173 261.7 12.8 259.3 13.4
2002-12-03 11:57:22 51°14.567 2°45.15 261.8 12.8 260.2 13.4
2002-12-03 11:57:28 51°14.563 2°45.117 261.7 12.8 259.8 13.5
2002-12-03 11:57:33 51°14.559 2°45.09 261.5 12.7 259.5 13.7
2002-12-03 11:57:38 51°14.557 2°45.062 261.2 12.7 259.1 13.8
2002-12-03 11:57:43 51°14.553 2°45.035 261.2 12.7 259.3 13.7
2002-12-03 11:57:48 51°14.55 2°45.007 261.2 12.7 259.3 13.5
2002-12-03 11:57:53 51°14.547 2°44.979 261.3 12.7 259.5 13.8
2002-12-03 11:57:58 51°14.544 2°44.952 261.7 12.7 259.6 14.2
2002-12-03 11:58:02 51°14.542 2°44.93 262 12.7 260.2 14
2002-12-03 11:58:08 51°14.538 2°44.896 262.3 12.7 260.5 14.2
2002-12-03 11:58:13 51°14.535 2°44.869 262.2 12.7 260.8 14.5
2002-12-03 11:58:18 51°14.532 2°44.841 261.7 12.7 260.4 14.6
2002-12-03 11:58:22 51°14.53 2°44.819 262 12.7 260.6 14.6
2002-12-03 11:58:28 51°14.526 2°44.786 261.8 12.6 260.3 14.8
2002-12-03 11:58:33 51°14.523 2°44.759 261.3 12.6 260.2 15
2002-12-03 11:58:38 51°14.52 2°44.731 261.5 12.7 259.6 15.1
2002-12-03 11:58:42 51°14.518 2°44.709 261.3 12.6 260.2 15.3
2002-12-03 11:58:48 51°14.514 2°44.676 261.2 12.6 259.7 15.4
2002-12-03 11:58:53 51°14.511 2°44.649 261.5 12.6 259.7 15.3
2002-12-03 11:58:58 51°14.508 2°44.621 261.8 12.6 260.1 15.6
2002-12-03 11:59:02 51°14.505 2°44.6 261.3 12.6 260.3 15.6
2002-12-03 11:59:08 51°14.502 2°44.567 261.5 12.6 260.5 15.9
2002-12-03 11:59:13 51°14.499 2°44.539 261.5 12.6 260.7 16
2002-12-03 11:59:18 51°14.496 2°44.512 261.3 12.5 260.2 16.1
2002-12-03 11:59:22 51°14.493 2°44.49 261.2 12.6 259.8 16.1
2002-12-03 11:59:28 51°14.489 2°44.457 261.3 12.6 259.8 16.3
2002-12-03 11:59:33 51°14.486 2°44.43 262 12.6 260.1 16.4
2002-12-03 11:59:38 51°14.484 2°44.403 261.8 12.6 260.1 16.2
2002-12-03 11:59:42 51°14.481 2°44.381 261.8 12.6 260.4 15.9
2002-12-03 11:59:48 51°14.478 2°44.348 261.5 12.6 260.2 16.6
2002-12-03 11:59:53 51°14.474 2°44.321 261.5 12.6 259.8 16.6
2002-12-03 11:59:58 51°14.471 2°44.294 261.3 12.5 259.6 16.8
2002-12-03 12:00:02 51°14.469 2°44.272 261 12.5 259.5 16.8
2002-12-03 12:00:08 51°14.465 2°44.239 261.5 12.6 260.1 16.5
2002-12-03 12:00:13 51°14.462 2°44.212 261.5 12.6 260 16.7
2002-12-03 12:00:18 51°14.459 2°44.184 261.8 12.6 259.8 16.9
2002-12-03 12:00:22 51°14.457 2°44.162 262 12.5 260.3 17
2002-12-03 12:00:28 51°14.454 2°44.13 261.7 12.5 260.3 17.2
2002-12-03 12:00:33 51°14.451 2°44.102 262.3 12.5 260.4 17.2
2002-12-03 12:00:38 51°14.448 2°44.075 262.8 12.6 260.7 17.2
2002-12-03 12:00:42 51°14.446 2°44.053 263.7 12.6 261.1 17.3
2002-12-03 12:00:48 51°14.444 2°44.019 264.2 12.6 262.7 17.5
2002-12-03 12:00:53 51°14.442 2°43.992 264.3 12.6 262.9 17.7
2002-12-03 12:00:58 51°14.44 2°43.964 264.3 12.6 262.8 17.3
2002-12-03 12:01:02 51°14.439 2°43.942 264.3 12.6 263.3 17.8
2002-12-03 12:01:08 51°14.436 2°43.909 264.3 12.6 263.1 17.8
2002-12-03 12:01:13 51°14.433 2°43.881 264.3 12.6 263 17.9
2002-12-03 12:01:18 51°14.431 2°43.854 264.3 12.6 262.7 18.2
2002-12-03 12:01:22 51°14.43 2°43.832 264 12.6 262.8 18.3
2002-12-03 12:01:28 51°14.427 2°43.799 263.8 12.6 262.9 18.2
2002-12-03 12:01:33 51°14.425 2°43.771 263.5 12.6 262.6 18.3
2002-12-03 12:01:38 51°14.423 2°43.743 263.5 12.6 262.4 18.2
2002-12-03 12:01:42 51°14.421 2°43.722 263.3 12.6 262.4 18.4
2002-12-03 12:01:48 51°14.418 2°43.688 263.8 12.6 262.7 18.5
2002-12-03 12:01:53 51°14.415 2°43.661 263.7 12.6 262.5 18.5
2002-12-03 12:01:58 51°14.413 2°43.633 263.8 12.6 262.4 18.2
2002-12-03 12:02:03 51°14.411 2°43.606 263.5 12.6 261.8 18.8
2002-12-03 12:02:08 51°14.409 2°43.578 263.5 12.6 261.9 18.8
2002-12-03 12:02:13 51°14.406 2°43.551 263.5 12.6 261.9 18.8
2002-12-03 12:02:18 51°14.404 2°43.523 264.2 12.6 262.4 18.9
2002-12-03 12:02:22 51°14.402 2°43.501 264 12.6 262.5 18.8
2002-12-03 12:02:28 51°14.4 2°43.468 264.7 12.6 263.1 19
2002-12-03 12:02:33 51°14.399 2°43.44 265.5 12.6 263.6 19.1
2002-12-03 12:02:38 51°14.397 2°43.412 266 12.6 264.7 19.1
2002-12-03 12:02:43 51°14.396 2°43.385 266.2 12.6 265.5 19
2002-12-03 12:02:48 51°14.394 2°43.357 265.8 12.6 265.2 18.9
2002-12-03 12:02:53 51°14.392 2°43.329 265.5 12.6 265.1 19.1
2002-12-03 12:02:58 51°14.391 2°43.301 265.5 12.6 264.5 19.1
2002-12-03 12:03:02 51°14.389 2°43.279 265.8 12.6 264.5 18.9
2002-12-03 12:03:08 51°14.387 2°43.245 266 12.6 264.8 18.9
2002-12-03 12:03:13 51°14.386 2°43.218 266.3 12.6 265 19.2
2002-12-03 12:03:18 51°14.385 2°43.19 266.5 12.6 265.5 19
2002-12-03 12:03:22 51°14.383 2°43.168 266.3 12.6 265.3 18.9
2002-12-03 12:03:28 51°14.382 2°43.134 266.2 12.6 265.7 19.2
2002-12-03 12:03:33 51°14.38 2°43.107 265.8 12.6 265.2 19.3
2002-12-03 12:03:38 51°14.378 2°43.079 265.5 12.6 265 19.3
2002-12-03 12:03:43 51°14.377 2°43.051 265.3 12.6 264.6 19.3
2002-12-03 12:03:48 51°14.375 2°43.023 265.5 12.6 264.3 19.4
2002-12-03 12:03:53 51°14.374 2°42.996 266 12.6 264.9 19.3
2002-12-03 12:03:58 51°14.372 2°42.968 266.2 12.6 265.2 19.4
2002-12-03 12:04:03 51°14.37 2°42.94 266 12.6 264.7 19.6
2002-12-03 12:04:08 51°14.369 2°42.912 265.7 12.6 264.7 19.5
2002-12-03 12:04:13 51°14.367 2°42.885 265.7 12.6 264.8 19.5
2002-12-03 12:04:18 51°14.366 2°42.857 265.7 12.7 264.9 19.5
2002-12-03 12:04:22 51°14.364 2°42.835 265.5 12.6 264.7 19.5
2002-12-03 12:04:28 51°14.362 2°42.801 265.3 12.6 264.6 19.7
2002-12-03 12:04:33 51°14.361 2°42.774 265.5 12.6 264.6 19.6
2002-12-03 12:04:38 51°14.359 2°42.746 265.5 12.6 264.1 19.8
2002-12-03 12:04:42 51°14.358 2°42.723 266 12.7 264.8 19.7
2002-12-03 12:04:48 51°14.357 2°42.69 266.5 12.7 265.4 19.6
2002-12-03 12:04:52 51°14.355 2°42.668 266.7 12.6 265.9 19.7
2002-12-03 12:04:58 51°14.354 2°42.634 266.7 12.6 265.8 19.8
2002-12-03 12:05:02 51°14.353 2°42.612 266.2 12.6 265.6 19.8
2002-12-03 12:05:08 51°14.351 2°42.579 266 12.6 265.4 19.8
2002-12-03 12:05:13 51°14.349 2°42.551 265.3 12.6 265 19.8
2002-12-03 12:05:18 51°14.347 2°42.523 265.7 12.6 264.5 19.8
2002-12-03 12:05:22 51°14.346 2°42.501 265.7 12.6 264.3 19.6
2002-12-03 12:05:28 51°14.344 2°42.468 265.5 12.6 264.2 19.7
2002-12-03 12:05:33 51°14.343 2°42.44 265.5 12.6 264.3 19.5
2002-12-03 12:05:38 51°14.341 2°42.412 265.3 12.6 264 19.7
2002-12-03 12:05:42 51°14.339 2°42.39 265.2 12.6 263.9 19.2
2002-12-03 12:05:48 51°14.337 2°42.357 265.5 12.6 263.8 19.7
2002-12-03 12:05:53 51°14.336 2°42.329 265.8 12.6 264.4 19.7
2002-12-03 12:05:58 51°14.334 2°42.302 265.5 12.6 264.8 19.7
2002-12-03 12:06:02 51°14.333 2°42.279 265.7 12.6 264.9 19.8
2002-12-03 12:06:08 51°14.331 2°42.246 265.8 12.7 264.6 19.8
2002-12-03 12:06:13 51°14.329 2°42.218 265.5 12.6 263.6 19.9
2002-12-03 12:06:18 51°14.328 2°42.19 265.5 12.7 263.6 19.9
2002-12-03 12:06:23 51°14.326 2°42.162 265.8 12.7 264.1 20
2002-12-03 12:06:28 51°14.325 2°42.135 266 12.7 264.7 20
2002-12-03 12:06:33 51°14.323 2°42.107 265.7 12.6 264.5 19.9
2002-12-03 12:06:38 51°14.322 2°42.079 265.7 12.6 264.5 19.9
2002-12-03 12:06:42 51°14.321 2°42.057 265.7 12.6 264.5 19.6
2002-12-03 12:06:48 51°14.319 2°42.024 266 12.7 264.7 19.9
2002-12-03 12:06:53 51°14.317 2°41.996 266 12.7 264.7 19.8
2002-12-03 12:06:58 51°14.315 2°41.968 265.8 12.6 264.6 19.7
2002-12-03 12:07:03 51°14.314 2°41.94 266 12.7 264.5 19.4
2002-12-03 12:07:08 51°14.313 2°41.912 266.2 12.7 265.3 19.6
2002-12-03 12:07:13 51°14.311 2°41.884 266 12.6 265.4 19.2
2002-12-03 12:07:18 51°14.31 2°41.856 265.8 12.7 265.1 19.1
2002-12-03 12:07:23 51°14.308 2°41.829 265.7 12.7 264.6 18.7
2002-12-03 12:07:28 51°14.306 2°41.801 265.3 12.7 263.7 18.6
2002-12-03 12:07:33 51°14.304 2°41.773 265.2 12.7 263.4 18.7
2002-12-03 12:07:38 51°14.302 2°41.745 264.8 12.6 263.1 18.8
2002-12-03 12:07:42 51°14.301 2°41.723 265.3 12.6 263.7 18.6
2002-12-03 12:07:48 51°14.299 2°41.69 265.7 12.6 263.9 18.6
2002-12-03 12:07:52 51°14.297 2°41.668 265.5 12.6 263.7 18.4
2002-12-03 12:07:58 51°14.295 2°41.634 265.7 12.7 263.7 18.3
2002-12-03 12:08:03 51°14.294 2°41.607 265.8 12.7 264 18.3
2002-12-03 12:08:08 51°14.292 2°41.579 265.8 12.7 264.4 18
2002-12-03 12:08:13 51°14.29 2°41.551 266.2 12.7 264.7 17.6
2002-12-03 12:08:18 51°14.289 2°41.523 265.7 12.7 264.7 17.9
2002-12-03 12:08:22 51°14.287 2°41.5 265.8 12.7 264.3 17.5
2002-12-03 12:08:28 51°14.285 2°41.467 265.3 12.7 263.7 17.5
2002-12-03 12:08:33 51°14.283 2°41.439 265.5 12.7 264 17.5
2002-12-03 12:08:38 51°14.281 2°41.411 265.7 12.7 264.4 17.3
2002-12-03 12:08:42 51°14.28 2°41.388 265.8 12.7 264.3 17.1
2002-12-03 12:08:48 51°14.277 2°41.355 265.5 12.7 264.3 16.9
2002-12-03 12:08:53 51°14.275 2°41.327 265.7 12.7 263.7 16.9
2002-12-03 12:08:58 51°14.273 2°41.299 265.7 12.7 263.6 16.8
2002-12-03 12:09:02 51°14.273 2°41.276 267.8 12.7 264.7 16.8
2002-12-03 12:09:08 51°14.272 2°41.243 269.2 12.8 267.1 16.8
2002-12-03 12:09:13 51°14.272 2°41.214 271.2 12.8 268.7 16.8
2002-12-03 12:09:18 51°14.273 2°41.186 273 12.8 270.9 16.7
2002-12-03 12:09:22 51°14.274 2°41.163 274.3 12.8 272.4 17.1
2002-12-03 12:09:28 51°14.275 2°41.129 275.3 12.9 273.5 17.3
2002-12-03 12:09:33 51°14.277 2°41.101 275.8 12.9 274.4 17.2
2002-12-03 12:09:38 51°14.279 2°41.073 276.2 12.9 275 17.1
2002-12-03 12:09:42 51°14.28 2°41.05 276.8 12.9 276.3 16.9
2002-12-03 12:09:48 51°14.282 2°41.016 276.8 12.9 276.3 16.8
2002-12-03 12:09:53 51°14.284 2°40.987 277 12.9 276.3 16.1
2002-12-03 12:09:58 51°14.285 2°40.959 277.2 12.9 275.8 16.3
2002-12-03 12:10:02 51°14.287 2°40.936 277 12.9 275.6 16.5
2002-12-03 12:10:08 51°14.289 2°40.902 277 12.9 275.1 16.4
2002-12-03 12:10:13 51°14.29 2°40.874 276.3 12.9 274.8 16.8
2002-12-03 12:10:18 51°14.292 2°40.846 276.7 12.9 275 16.6
2002-12-03 12:10:23 51°14.294 2°40.817 276.7 12.9 274.8 16.8
2002-12-03 12:10:28 51°14.296 2°40.789 278 12.9 275.5 16.8
2002-12-03 12:10:33 51°14.298 2°40.76 279.2 12.9 275.9 16.6
2002-12-03 12:10:38 51°14.301 2°40.732 279.8 13 277.8 16.6
2002-12-03 12:10:43 51°14.305 2°40.704 280.5 13 278.7 16.5
2002-12-03 12:10:48 51°14.308 2°40.676 280.8 13 279.3 16.1
2002-12-03 12:10:53 51°14.311 2°40.647 281.7 13 280 15.8
2002-12-03 12:10:58 51°14.315 2°40.619 282.8 13 281.1 15.9
2002-12-03 12:11:02 51°14.318 2°40.597 284 13 282.4 15.5
2002-12-03 12:11:08 51°14.324 2°40.563 284.8 13 283.3 15.5
2002-12-03 12:11:13 51°14.328 2°40.536 285.8 13 283.9 15.3
2002-12-03 12:11:18 51°14.333 2°40.508 285.8 13 284.8 15.4
2002-12-03 12:11:22 51°14.337 2°40.485 285.7 13.1 284.8 15.8
2002-12-03 12:11:28 51°14.342 2°40.452 285.7 13.1 284.7 16.3
2002-12-03 12:11:33 51°14.348 2°40.424 286.8 13.1 285 16.1
2002-12-03 12:11:38 51°14.354 2°40.396 288.3 13.1 287 16.5
2002-12-03 12:11:42 51°14.358 2°40.374 289 13.2 288.2 16.3
2002-12-03 12:11:48 51°14.365 2°40.341 290 13.2 289.2 16.1
2002-12-03 12:11:53 51°14.371 2°40.314 290.5 13.2 289.2 15.5
2002-12-03 12:11:58 51°14.377 2°40.286 290.7 13.1 289.2 16
2002-12-03 12:12:02 51°14.382 2°40.264 291.5 13.1 289.2 15.9
2002-12-03 12:12:08 51°14.391 2°40.232 293.3 13.1 291.1 15.1
2002-12-03 12:12:13 51°14.399 2°40.206 295.3 13.2 292.8 14.9
2002-12-03 12:12:18 51°14.407 2°40.179 296.5 13.2 294.5 14.6
2002-12-03 12:12:22 51°14.414 2°40.158 297.5 13.2 295.7 14.4
2002-12-03 12:12:28 51°14.423 2°40.127 297.8 13.2 296.5 14.9
2002-12-03 12:12:33 51°14.432 2°40.101 298.3 13.2 296.7 14.9
2002-12-03 12:12:38 51°14.441 2°40.075 298.2 13.2 296.9 15.5
2002-12-03 12:12:42 51°14.447 2°40.054 298 13.3 296.8 15.5
2002-12-03 12:12:48 51°14.458 2°40.022 298 13.4 297.2 15.6
2002-12-03 12:12:53 51°14.466 2°39.996 298 13.4 297 15.6
2002-12-03 12:12:58 51°14.475 2°39.969 298.2 13.4 297.6 15.3
2002-12-03 12:13:02 51°14.481 2°39.949 299.7 13.4 297.6 15.1
2002-12-03 12:13:08 51°14.493 2°39.918 300.8 13.3 298.9 15.3
2002-12-03 12:13:13 51°14.503 2°39.893 302.2 13.4 300.1 15.3
2002-12-03 12:13:18 51°14.513 2°39.867 302.5 13.4 301.5 15.4
2002-12-03 12:13:22 51°14.521 2°39.847 302.8 13.4 301.7 15.5
2002-12-03 12:13:28 51°14.533 2°39.817 303 13.5 302.4 15.6
2002-12-03 12:13:33 51°14.543 2°39.793 304.3 13.4 302.8 15.9
2002-12-03 12:13:38 51°14.554 2°39.768 305.2 13.4 303.8 15.8
2002-12-03 12:13:43 51°14.565 2°39.744 305.8 13.5 304.7 13.6
2002-12-03 12:13:48 51°14.576 2°39.719 306.3 13.5 305.2 16.3
2002-12-03 12:13:53 51°14.587 2°39.695 306.2 13.5 305.5 15.6
2002-12-03 12:13:58 51°14.598 2°39.671 306.2 13.5 305.7 16.3
2002-12-03 12:14:02 51°14.607 2°39.652 306.7 13.5 306.1 16.1
2002-12-03 12:14:08 51°14.621 2°39.623 306.7 13.6 306.5 16.6
2002-12-03 12:14:13 51°14.632 2°39.599 306.2 13.6 306.3 17.3
2002-12-03 12:14:18 51°14.643 2°39.574 305.8 13.6 305.9 17.4
2002-12-03 12:14:23 51°14.654 2°39.55 306 13.6 306.3 17.7
2002-12-03 12:14:28 51°14.665 2°39.526 306 13.5 306.1 17.7
2002-12-03 12:14:33 51°14.676 2°39.502 305.7 13.4 305.7 17.3
2002-12-03 12:14:38 51°14.687 2°39.478 305.7 13.5 306 17.5
2002-12-03 12:14:42 51°14.696 2°39.459 305.5 13.5 305.9 17.4
2002-12-03 12:14:48 51°14.709 2°39.43 305.7 13.4 306.1 18.1
2002-12-03 12:14:53 51°14.72 2°39.406 305.8 13.4 306.1 18
2002-12-03 12:14:58 51°14.732 2°39.382 306 13.4 306.3 18.7
2002-12-03 12:15:02 51°14.741 2°39.363 306.3 13.5 306.8 18.3
2002-12-03 12:15:08 51°14.754 2°39.335 306.8 13.5 307.4 18.7
2002-12-03 12:15:13 51°14.766 2°39.311 307 13.5 307.5 17.9
2002-12-03 12:15:18 51°14.777 2°39.288 307.2 13.5 307.4 18.6
2002-12-03 12:15:22 51°14.786 2°39.269 307 13.5 307.2 18.3
2002-12-03 12:15:28 51°14.799 2°39.24 307 13.5 307 18.5
2002-12-03 12:15:33 51°14.811 2°39.216 307.5 13.5 307.3 18.7
2002-12-03 12:15:38 51°14.823 2°39.192 307.5 13.6 307.7 19.1
2002-12-03 12:15:42 51°14.832 2°39.173 307.2 13.7 307.9 18.9
2002-12-03 12:15:48 51°14.846 2°39.145 307.3 13.7 308.2 18.5
2002-12-03 12:15:53 51°14.857 2°39.121 307 13.6 307.5 19.1
2002-12-03 12:15:58 51°14.868 2°39.097 307 13.5 307.2 19.2
2002-12-03 12:16:02 51°14.878 2°39.078 307 13.6 307.2 19.4
2002-12-03 12:16:08 51°14.891 2°39.049 307.2 13.6 307.3 19.3
2002-12-03 12:16:13 51°14.902 2°39.025 307.5 13.5 307.3 19.3
2002-12-03 12:16:18 51°14.914 2°39.002 307.7 13.5 307.7 19.6
2002-12-03 12:16:23 51°14.926 2°38.978 308.5 13.6 308.1 19.3
2002-12-03 12:16:28 51°14.938 2°38.955 308.8 13.6 308.8 19.6
2002-12-03 12:16:33 51°14.949 2°38.932 309.2 13.6 309.2 19.3
2002-12-03 12:16:38 51°14.961 2°38.908 309.3 13.6 309 19.5
2002-12-03 12:16:42 51°14.971 2°38.89 309.3 13.5 308.9 19.3
2002-12-03 12:16:48 51°14.986 2°38.862 309.3 13.6 309.2 19.7
2002-12-03 12:16:53 51°14.998 2°38.838 309 13.7 309.2 19.7
2002-12-03 12:16:58 51°15.009 2°38.815 309 13.6 309.1 20
2002-12-03 12:17:03 51°15.021 2°38.791 308.5 13.7 309 19.9
2002-12-03 12:17:08 51°15.033 2°38.767 309 13.7 309.1 19.9
2002-12-03 12:17:13 51°15.044 2°38.743 309 13.7 309 19.8
2002-12-03 12:17:18 51°15.056 2°38.72 309 13.7 309 19.5
2002-12-03 12:17:23 51°15.067 2°38.696 309.2 13.7 309.1 19.7
2002-12-03 12:17:28 51°15.079 2°38.672 309.3 13.7 309 19.8
2002-12-03 12:17:33 51°15.09 2°38.649 309.8 13.6 309.2 19.8
2002-12-03 12:17:38 51°15.103 2°38.626 310.3 13.6 309.5 19.5
2002-12-03 12:17:42 51°15.113 2°38.608 311.3 13.6 310.4 19.2
2002-12-03 12:17:48 51°15.129 2°38.581 311.5 13.7 311.3 19.2
2002-12-03 12:17:53 51°15.142 2°38.559 311.5 13.7 311.4 19
2002-12-03 12:17:58 51°15.155 2°38.536 311.5 13.7 311.4 18.9
2002-12-03 12:18:02 51°15.165 2°38.519 311.5 13.7 311.5 18.2
2002-12-03 12:18:08 51°15.18 2°38.491 311.7 13.7 311.5 18.4
2002-12-03 12:18:13 51°15.193 2°38.468 311.7 13.7 311.3 18.1
2002-12-03 12:18:18 51°15.205 2°38.445 311.2 13.6 310.9 17.3
2002-12-03 12:18:23 51°15.217 2°38.423 310.8 13.6 310.6 17.1
2002-12-03 12:18:28 51°15.229 2°38.4 311 13.5 310.2 16.2
2002-12-03 12:18:33 51°15.243 2°38.378 311 13.6 310.5 16.1
2002-12-03 12:18:38 51°15.255 2°38.355 311.2 13.6 310.8 16.2
2002-12-03 12:18:42 51°15.265 2°38.337 311.3 13.5 310.6 15.4
2002-12-03 12:18:48 51°15.28 2°38.31 311 13.5 310.5 14.9
2002-12-03 12:18:53 51°15.292 2°38.287 310.7 13.5 310.8 15.2
2002-12-03 12:18:58 51°15.304 2°38.265 310.8 13.5 310.6 14.5
2002-12-03 12:19:02 51°15.314 2°38.247 310.8 13.4 310.7 14.4
2002-12-03 12:19:08 51°15.328 2°38.22 310.8 13.4 310.6 14.2
2002-12-03 12:19:13 51°15.341 2°38.197 310.8 13.4 310.6 13.9
2002-12-03 12:19:18 51°15.353 2°38.174 310.7 13.4 310.6 13.7
2002-12-03 12:19:22 51°15.362 2°38.157 311.2 13.4 311.1 13.3
2002-12-03 12:19:28 51°15.377 2°38.13 311.5 13.4 311.3 13.2
2002-12-03 12:19:33 51°15.389 2°38.109 311.3 13.3 311.5 13.4
2002-12-03 12:19:38 51°15.402 2°38.087 311.2 13.3 311.6 12.8
2002-12-03 12:19:42 51°15.412 2°38.069 311.5 13.3 311.6 12.8
2002-12-03 12:19:48 51°15.427 2°38.043 311.8 13.3 312.2 12.5
2002-12-03 12:19:53 51°15.44 2°38.022 311.8 13.3 312.2 12.4
2002-12-03 12:19:58 51°15.452 2°38 311.7 13.3 312.3 12.4
2002-12-03 12:20:03 51°15.464 2°37.978 312 13.3 312.3 12.4
2002-12-03 12:20:08 51°15.477 2°37.956 312 13.3 312.7 12.9
2002-12-03 12:20:13 51°15.489 2°37.935 312.2 13.4 313.1 12.6
2002-12-03 12:20:18 51°15.501 2°37.913 311.8 13.3 313 12.6
2002-12-03 12:20:22 51°15.511 2°37.896 311.2 13.3 312.9 11.9
2002-12-03 12:20:28 51°15.526 2°37.87 311.3 13.2 312 12.9
2002-12-03 12:20:33 51°15.539 2°37.848 311.5 13.2 312.1 12.7
2002-12-03 12:20:38 51°15.551 2°37.827 311.8 13.2 312.1 12
2002-12-03 12:20:42 51°15.561 2°37.81 312.2 13.3 312.9 13
2002-12-03 12:20:48 51°15.577 2°37.784 312.7 13.4 313.7 13.3
2002-12-03 12:20:53 51°15.59 2°37.763 312.3 13.5 314 13.2
2002-12-03 12:20:58 51°15.602 2°37.741 311.7 13.5 313.1 11.5
2002-12-03 12:21:03 51°15.615 2°37.719 311.3 13.4 312.6 12.8
2002-12-03 12:21:08 51°15.627 2°37.697 311.5 13.4 312.5 12.9
2002-12-03 12:21:13 51°15.64 2°37.676 311.3 13.4 312.9 11.3
2002-12-03 12:21:18 51°15.652 2°37.654 311.5 13.4 312.8 12.4
2002-12-03 12:21:23 51°15.665 2°37.632 312 13.4 313 13.3
2002-12-03 12:21:28 51°15.678 2°37.61 311.7 13.4 312.7 13.6
2002-12-03 12:21:33 51°15.69 2°37.589 311.2 13.4 312.4 11.7
2002-12-03 12:21:38 51°15.703 2°37.567 311.5 13.4 312.3 11.8
2002-12-03 12:21:42 51°15.713 2°37.55 312.5 13.4 313.1 11.4
2002-12-03 12:21:48 51°15.728 2°37.524 312.2 13.3 313.6 13
2002-12-03 12:21:53 51°15.741 2°37.503 312.2 13.3 313.8 13.4
2002-12-03 12:21:58 51°15.754 2°37.481 311.7 13.4 313.3 13.3
2002-12-03 12:22:03 51°15.767 2°37.458 310.8 13.5 312.6 13.4
2002-12-03 12:22:08 51°15.78 2°37.436 311 13.7 312.1 11.5
2002-12-03 12:22:13 51°15.792 2°37.414 311.7 13.7 312.8 11.8
2002-12-03 12:22:18 51°15.805 2°37.393 312.3 13.6 313.4 13
2002-12-03 12:22:23 51°15.818 2°37.371 312.2 13.4 313.9 12.7
2002-12-03 12:22:28 51°15.831 2°37.349 311.7 13.5 313 13.6
2002-12-03 12:22:33 51°15.843 2°37.327 311.2 13.6 312.5 13.8
2002-12-03 12:22:38 51°15.856 2°37.304 311.3 13.8 312.6 13.7
2002-12-03 12:22:42 51°15.867 2°37.287 311.3 13.8 312.8 13.5
2002-12-03 12:22:48 51°15.882 2°37.26 311.2 13.8 312.7 13.7
2002-12-03 12:22:53 51°15.895 2°37.238 311.7 13.8 312.9 13.7
2002-12-03 12:22:58 51°15.908 2°37.215 312 13.8 313.2 14.1
2002-12-03 12:23:03 51°15.921 2°37.193 312 13.8 313.3 14.5
2002-12-03 12:23:08 51°15.934 2°37.171 312.3 13.8 313.5 15
2002-12-03 12:23:13 51°15.947 2°37.149 312.2 13.8 313.5 15.7
2002-12-03 12:23:18 51°15.96 2°37.126 311.8 13.8 313.4 16
2002-12-03 12:23:23 51°15.974 2°37.104 311.8 13.8 313.6 17
2002-12-03 12:23:28 51°15.987 2°37.082 312 13.9 313.9 18.3
2002-12-03 12:23:33 51°16.001 2°37.06 312.2 13.9 313.9 19.4
2002-12-03 12:23:38 51°16.014 2°37.038 311.8 13.9 313.9 20.6
2002-12-03 12:23:42 51°16.025 2°37.02 312.2 13.9 314.4 21
2002-12-03 12:23:48 51°16.041 2°36.994 312.3 13.9 314.9 22.1
2002-12-03 12:23:53 51°16.055 2°36.973 312.5 14 315.1 22.7
2002-12-03 12:23:58 51°16.069 2°36.951 312.3 14 315.4 23.3
2002-12-03 12:24:02 51°16.079 2°36.935 312 13.7 315.6 24.9
2002-12-03 12:24:08 51°16.094 2°36.912 311.3 13 315.9 24.8
2002-12-03 12:24:13 51°16.106 2°36.895 311.3 12.1 316.1 25.9
2002-12-03 12:24:18 51°16.116 2°36.878 311 11.2 316.5 26.9
2002-12-03 12:24:23 51°16.126 2°36.863 310.8 10.7 316.6 27.6
2002-12-03 12:24:27 51°16.135 2°36.851 311 10 317.5 27.7
2002-12-03 12:24:33 51°16.146 2°36.835 310.7 9.6 318 27.5
2002-12-03 12:24:38 51°16.156 2°36.822 310.8 9.2 318.6 27.7
2002-12-03 12:24:42 51°16.163 2°36.813 310.8 8.8 319.5 28.3
2002-12-03 12:24:48 51°16.173 2°36.799 310.3 8.3 320 28.2
2002-12-03 12:24:53 51°16.181 2°36.788 309.7 7.8 320 28.4
2002-12-03 12:24:58 51°16.188 2°36.778 308.8 7.4 320.1 29.1
2002-12-03 12:25:02 51°16.194 2°36.771 308 7.2 320.1 29.1
2002-12-03 12:25:08 51°16.202 2°36.76 307 6.6 320.1 29.3
2002-12-03 12:25:13 51°16.209 2°36.751 305.3 6.3 319.5 29.4
2002-12-03 12:25:18 51°16.215 2°36.743 303.7 5.9 318.9 29.3
2002-12-03 12:25:22 51°16.219 2°36.736 301.5 5.6 318.2 29.1
2002-12-03 12:25:28 51°16.225 2°36.727 299.7 5.2 317.5 29.5
2002-12-03 12:25:33 51°16.23 2°36.72 297 5 317.1 29.3
2002-12-03 12:25:38 51°16.234 2°36.713 294 4.6 315.7 29.7
2002-12-03 12:25:42 51°16.237 2°36.708 290.8 4.3 315 29.4
2002-12-03 12:25:48 51°16.242 2°36.701 288.3 3.9 314 29.7
2002-12-03 12:25:53 51°16.245 2°36.695 285.7 3.7 313.1 29.5
2002-12-03 12:25:58 51°16.248 2°36.69 283.5 3.4 312.2 30
2002-12-03 12:26:02 51°16.25 2°36.686 280.8 3.2 311.5 30
2002-12-03 12:26:08 51°16.253 2°36.681 278.7 2.9 310.7 30.1
2002-12-03 12:26:13 51°16.255 2°36.676 275.8 2.7 310.2 30.2
2002-12-03 12:26:18 51°16.257 2°36.672 273 2.5 308.7 30.1
2002-12-03 12:26:22 51°16.258 2°36.669 269.8 2.2 306.9 29.5
2002-12-03 12:26:28 51°16.26 2°36.665 266.7 2 306.5 30.1
2002-12-03 12:26:33 51°16.261 2°36.662 263.5 1.8 305.5 30
2002-12-03 12:26:38 51°16.263 2°36.659 260.5 1.7 305 29.9
2002-12-03 12:26:43 51°16.264 2°36.657 257.7 1.5 305 29.8
2002-12-03 12:26:48 51°16.266 2°36.654 255.2 1.3 304.9 29.9
2002-12-03 12:26:53 51°16.267 2°36.652 252.5 1.2 303.4 30
2002-12-03 12:26:58 51°16.268 2°36.651 250.2 1.1 304.3 29.9
2002-12-03 12:27:03 51°16.269 2°36.649 247.7 1.1 307.1 29.9
2002-12-03 12:27:08 51°16.27 2°36.648 245.5 1 310.7 30.1
2002-12-03 12:27:13 51°16.271 2°36.646 243.2 0.8 311.5 30.1
2002-12-03 12:27:18 51°16.271 2°36.645 240.8 0.8 313.3 30.1
2002-12-03 12:27:22 51°16.272 2°36.645 238.5 0.7 315.2 30.1
2002-12-03 12:27:28 51°16.272 2°36.644 236.3 0.6 318.9 30.1
2002-12-03 12:27:33 51°16.272 2°36.643 234.3 0.5 323.8 29.9
2002-12-03 12:27:38 51°16.273 2°36.643 232.2 0.4 329.7 30.1
2002-12-03 12:27:42 51°16.273 2°36.643 229.8 0.4 338.5 30.1
2002-12-03 12:27:48 51°16.274 2°36.643 227.7 0.3 348.7 30.2
2002-12-03 12:27:53 51°16.275 2°36.643 225.8 0.3 0.9 30.2
2002-12-03 12:27:58 51°16.275 2°36.643 223.7 0.3 10.6 30.2
2002-12-03 12:28:02 51°16.275 2°36.644 221.3 0.3 33.5 30.1
2002-12-03 12:28:08 51°16.275 2°36.644 219.3 0.4 42.5 30.3
2002-12-03 12:28:13 51°16.276 2°36.645 217.2 0.4 49 30.1
2002-12-03 12:28:18 51°16.276 2°36.646 215.3 0.5 53.3 30.3
2002-12-03 12:28:22 51°16.277 2°36.647 213.3 0.5 55 30.1
2002-12-03 12:28:28 51°16.277 2°36.648 211.5 0.5 59.3 30.3
2002-12-03 12:28:33 51°16.278 2°36.649 209.8 0.6 60.2 30.3
2002-12-03 12:28:38 51°16.278 2°36.651 208.2 0.6 59 30
2002-12-03 12:28:43 51°16.278 2°36.652 206.8 0.7 65.2 30.3
2002-12-03 12:28:47 51°16.278 2°36.653 205.3 0.7 65.4 30.1
2002-12-03 12:28:53 51°16.279 2°36.655 204 0.8 68.4 30.3
2002-12-03 12:28:58 51°16.279 2°36.656 202.5 0.8 69.1 30.1
2002-12-03 12:29:02 51°16.28 2°36.658 200.7 0.8 69.5 30.2
2002-12-03 12:29:08 51°16.28 2°36.66 199.5 0.9 69.3 30
2002-12-03 12:29:13 51°16.281 2°36.662 198 0.9 69 29.9
2002-12-03 12:29:18 51°16.281 2°36.664 196.7 0.9 70.3 30
2002-12-03 12:29:23 51°16.281 2°36.666 195.3 1 71.8 30
2002-12-03 12:29:28 51°16.282 2°36.668 194.2 1 71.6 29.7
2002-12-03 12:29:33 51°16.282 2°36.67 193.3 1 71 29.8
2002-12-03 12:29:38 51°16.283 2°36.672 192.8 1 68.9 29.8
2002-12-03 12:29:42 51°16.283 2°36.674 193 1 71.9 30
2002-12-03 12:29:48 51°16.283 2°36.676 193.2 1 72.6 30
2002-12-03 12:29:53 51°16.284 2°36.678 193.5 1 72.2 29.9
2002-12-03 12:29:58 51°16.284 2°36.68 193.8 1 70.3 29.9
2002-12-03 12:30:02 51°16.284 2°36.682 194.3 1 69.8 29.4
2002-12-03 12:30:08 51°16.284 2°36.684 195 1 72.3 29.8
2002-12-03 12:30:13 51°16.285 2°36.686 195.7 1 72.2 29.7
2002-12-03 12:30:18 51°16.285 2°36.688 196.3 1 71.7 29.3
2002-12-03 12:30:23 51°16.286 2°36.69 197.3 0.9 69.6 29.5
2002-12-03 12:30:28 51°16.286 2°36.692 198.3 0.9 69.7 29.7
2002-12-03 12:30:33 51°16.286 2°36.693 199.2 0.8 72.1 29.3
2002-12-03 12:30:38 51°16.287 2°36.695 200.2 0.8 77.6 29.5
2002-12-03 12:30:42 51°16.286 2°36.696 201.3 0.6 84 29.5
2002-12-03 12:30:48 51°16.286 2°36.697 202.5 0.6 96 29.4
2002-12-03 12:30:53 51°16.286 2°36.698 203.8 0.5 114.9 29.5
2002-12-03 12:30:58 51°16.285 2°36.699 205 0.5 134.9 29.7
2002-12-03 12:31:03 51°16.284 2°36.699 206.7 0.6 156.2 29.2
2002-12-03 12:31:08 51°16.282 2°36.7 208.2 0.7 166.4 29.7
2002-12-03 12:31:13 51°16.282 2°36.701 209.7 0.8 174.3 29.6
2002-12-03 12:31:18 51°16.281 2°36.7 211 0.9 177.5 29.5
2002-12-03 12:31:22 51°16.28 2°36.7 212.2 0.9 183.1 29.5
2002-12-03 12:31:28 51°16.278 2°36.7 213.3 1 187.4 29.6
2002-12-03 12:31:33 51°16.276 2°36.699 214.3 1 191.9 29.1
2002-12-03 12:31:38 51°16.275 2°36.699 215.5 1 194.2 29.5
2002-12-03 12:31:43 51°16.274 2°36.698 216.5 1.1 196.8 29.4
2002-12-03 12:31:47 51°16.273 2°36.697 217.7 1.1 202.8 29.3
2002-12-03 12:31:53 51°16.271 2°36.696 218.8 1.1 204.3 29.5
2002-12-03 12:31:58 51°16.27 2°36.694 220 1.1 206.2 29.2
2002-12-03 12:32:02 51°16.269 2°36.693 221.5 1.1 211.9 29.7
2002-12-03 12:32:08 51°16.267 2°36.691 222.8 1.1 214.7 29.8
2002-12-03 12:32:13 51°16.266 2°36.689 223.8 1.1 219.1 29.9
2002-12-03 12:32:18 51°16.265 2°36.687 225.2 1.2 223.6 29.7
2002-12-03 12:32:23 51°16.263 2°36.685 227 1.2 225.2 29.8
2002-12-03 12:32:28 51°16.262 2°36.683 228.2 1.3 228 30
2002-12-03 12:32:33 51°16.261 2°36.68 229.7 1.3 230.9 30
2002-12-03 12:32:38 51°16.26 2°36.678 230.8 1.3 234.6 30.1
2002-12-03 12:32:43 51°16.26 2°36.675 232.3 1.3 240.2 30
2002-12-03 12:32:48 51°16.259 2°36.673 233.8 1.4 242.6 30.2
2002-12-03 12:32:53 51°16.258 2°36.67 235.5 1.4 244.6 30.1
2002-12-03 12:32:58 51°16.257 2°36.666 236.8 1.4 245.8 29.9
2002-12-03 12:33:02 51°16.257 2°36.664 238.2 1.5 251 30
2002-12-03 12:33:08 51°16.256 2°36.66 239.5 1.5 253.9 29.6
2002-12-03 12:33:13 51°16.256 2°36.657 241.2 1.5 256.8 29.9
2002-12-03 12:33:18 51°16.255 2°36.653 242.8 1.5 260.6 29.8
2002-12-03 12:33:22 51°16.255 2°36.65 245 1.6 266.9 29.8
2002-12-03 12:33:28 51°16.255 2°36.646 246.8 1.6 269.8 29.9
2002-12-03 12:33:33 51°16.256 2°36.642 249 1.7 274.7 29.9
2002-12-03 12:33:38 51°16.256 2°36.638 251 1.7 278.5 30
2002-12-03 12:33:42 51°16.257 2°36.636 253.3 1.8 282.3 29.8
2002-12-03 12:33:48 51°16.258 2°36.631 255.2 1.8 286.3 29.7
2002-12-03 12:33:53 51°16.259 2°36.628 257 1.8 288.4 29.8
2002-12-03 12:33:58 51°16.26 2°36.623 258.7 1.8 288.8 29.8
2002-12-03 12:34:03 51°16.26 2°36.619 260 1.9 290.2 29.7
2002-12-03 12:34:08 51°16.262 2°36.615 261.3 2 292.4 29.5
2002-12-03 12:34:13 51°16.262 2°36.611 262.5 2 292.4 29.7
2002-12-03 12:34:18 51°16.264 2°36.607 263.7 2.1 294.4 29.3
2002-12-03 12:34:22 51°16.264 2°36.603 265 2.1 294.3 29.7
2002-12-03 12:34:28 51°16.266 2°36.598 266.3 2.2 298 29.9
2002-12-03 12:34:33 51°16.268 2°36.594 268 2.3 299 29.9
2002-12-03 12:34:38 51°16.27 2°36.589 269.5 2.3 301.1 29.8
2002-12-03 12:34:42 51°16.271 2°36.586 271.2 2.3 302.8 29.6
2002-12-03 12:34:48 51°16.273 2°36.581 273 2.4 305.4 29.4
2002-12-03 12:34:53 51°16.275 2°36.576 274.7 2.4 306.9 29.1
2002-12-03 12:34:58 51°16.278 2°36.572 276 2.4 308.5 29.5
2002-12-03 12:35:02 51°16.279 2°36.569 277.7 2.5 310.7 29.1
2002-12-03 12:35:08 51°16.282 2°36.564 279.3 2.5 312.2 29.4
2002-12-03 12:35:13 51°16.285 2°36.561 281.2 2.5 315.1 29.3
2002-12-03 12:35:18 51°16.287 2°36.557 283.2 2.5 318 29.2
2002-12-03 12:35:22 51°16.29 2°36.554 285.3 2.6 320.1 29.5
2002-12-03 12:35:28 51°16.293 2°36.549 287.2 2.6 322.5 29.2
2002-12-03 12:35:33 51°16.296 2°36.546 289 2.7 323.5 29.4
2002-12-03 12:35:38 51°16.299 2°36.543 290.3 2.7 324.9 29.5
2002-12-03 12:35:42 51°16.302 2°36.54 291.5 2.7 326.5 29.6
2002-12-03 12:35:48 51°16.306 2°36.537 292.3 2.7 328.8 29.6
2002-12-03 12:35:53 51°16.308 2°36.534 293.5 2.7 329.7 29.8
2002-12-03 12:35:58 51°16.312 2°36.531 294.5 2.6 331.6 29.7
2002-12-03 12:36:02 51°16.314 2°36.529 295.7 2.6 332.9 29.4
2002-12-03 12:36:08 51°16.319 2°36.526 296.8 2.7 334.3 29.7
2002-12-03 12:36:13 51°16.322 2°36.524 298 2.7 336.2 29.7
2002-12-03 12:36:18 51°16.325 2°36.522 299 2.7 336.6 29.4
2002-12-03 12:36:22 51°16.328 2°36.52 300 2.7 338.3 29.7
2002-12-03 12:36:28 51°16.332 2°36.518 300.5 2.7 339.6 29.7
2002-12-03 12:36:33 51°16.336 2°36.516 301.7 2.7 340.1 30
2002-12-03 12:36:38 51°16.34 2°36.514 302.7 2.7 341.8 30.1
2002-12-03 12:36:42 51°16.342 2°36.512 303.3 2.7 342.3 30
2002-12-03 12:36:48 51°16.347 2°36.51 304.2 2.7 342.9 29.6
2002-12-03 12:36:53 51°16.35 2°36.509 304.5 2.7 343.1 29.2
2002-12-03 12:36:58 51°16.354 2°36.507 304.7 2.6 343.5 29.7
2002-12-03 12:37:02 51°16.356 2°36.506 305 2.6 343.4 29.3
2002-12-03 12:37:08 51°16.361 2°36.504 305.5 2.7 344.9 29.1
2002-12-03 12:37:13 51°16.364 2°36.502 306.2 2.7 344.6 29.6
2002-12-03 12:37:18 51°16.368 2°36.501 306.8 2.7 345.9 29.7
2002-12-03 12:37:22 51°16.371 2°36.5 307.3 2.7 346.2 29.8
2002-12-03 12:37:28 51°16.375 2°36.498 308.2 2.8 347 29.4
2002-12-03 12:37:33 51°16.379 2°36.497 309 2.7 347.5 29.8
2002-12-03 12:37:38 51°16.383 2°36.496 309.8 2.7 348.6 29.3
2002-12-03 12:37:42 51°16.386 2°36.495 310.3 2.7 348.3 29.6
2002-12-03 12:37:48 51°16.39 2°36.494 311 2.8 349.3 29.8
2002-12-03 12:37:53 51°16.394 2°36.493 311.2 2.7 349.8 29.5
2002-12-03 12:37:58 51°16.398 2°36.491 311.8 2.7 350 29.8
2002-12-03 12:38:03 51°16.402 2°36.491 312.5 2.8 350.5 29.9
2002-12-03 12:38:08 51°16.405 2°36.49 313 2.8 350.9 29.9
2002-12-03 12:38:13 51°16.409 2°36.489 314 2.8 351.9 29.7
2002-12-03 12:38:18 51°16.413 2°36.488 314.3 2.8 352.9 29.6
2002-12-03 12:38:22 51°16.416 2°36.488 315.3 2.8 353 29.9
2002-12-03 12:38:28 51°16.421 2°36.487 316.2 2.8 353.6 29.8
2002-12-03 12:38:33 51°16.425 2°36.487 316.8 2.8 354.2 29.6
2002-12-03 12:38:38 51°16.429 2°36.486 317.3 2.8 354.4 29.7
2002-12-03 12:38:42 51°16.432 2°36.486 317.7 2.8 354.6 29.7
2002-12-03 12:38:48 51°16.437 2°36.485 317.7 2.8 354.6 29.5
2002-12-03 12:38:53 51°16.441 2°36.484 317.8 2.9 354.8 29.6
2002-12-03 12:38:58 51°16.445 2°36.484 317.7 2.8 355.1 29.5
2002-12-03 12:39:02 51°16.448 2°36.483 317.3 2.8 355.3 29.4
2002-12-03 12:39:08 51°16.453 2°36.482 317.5 2.8 354.9 29.2
2002-12-03 12:39:13 51°16.457 2°36.482 317.5 2.8 354.3 29.2
2002-12-03 12:39:18 51°16.46 2°36.481 317.2 2.8 354.8 29.1
2002-12-03 12:39:23 51°16.464 2°36.48 317.2 2.8 355.1 29
2002-12-03 12:39:28 51°16.467 2°36.48 317.2 2.7 355.7 29
2002-12-03 12:39:33 51°16.471 2°36.479 317.5 2.7 354.7 28.9
2002-12-03 12:39:38 51°16.475 2°36.479 318 2.8 355.6 28.4
2002-12-03 12:39:43 51°16.479 2°36.478 318.3 2.8 355.3 27.8
2002-12-03 12:39:48 51°16.483 2°36.478 319 2.8 355 28.1
2002-12-03 12:39:53 51°16.487 2°36.477 319.3 2.8 355.1 28.1
2002-12-03 12:39:58 51°16.491 2°36.477 319.8 2.8 354.9 28.3
2002-12-03 12:40:03 51°16.494 2°36.477 320.3 2.8 355.3 28.2
2002-12-03 12:40:08 51°16.498 2°36.476 320.7 2.8 355.8 28.6
2002-12-03 12:40:13 51°16.502 2°36.476 321 2.8 356 28.5
2002-12-03 12:40:18 51°16.506 2°36.475 321.8 2.8 356 28.9
2002-12-03 12:40:23 51°16.51 2°36.475 322.8 2.8 356.3 28.8
2002-12-03 12:40:28 51°16.514 2°36.475 323.7 2.8 356.9 28.2
2002-12-03 12:40:33 51°16.518 2°36.475 324.8 2.9 357.8 28.8
2002-12-03 12:40:38 51°16.522 2°36.474 326.2 2.9 358.2 29.1
2002-12-03 12:40:43 51°16.526 2°36.475 327.5 2.9 359.5 29.1
2002-12-03 12:40:48 51°16.531 2°36.474 328.7 3 359.6 29
2002-12-03 12:40:53 51°16.535 2°36.475 330.2 3 0.7 28.8
2002-12-03 12:40:58 51°16.539 2°36.475 331.5 2.9 1.6 28.7
2002-12-03 12:41:02 51°16.542 2°36.475 333 3 2.9 28.7
2002-12-03 12:41:08 51°16.547 2°36.476 334.3 3 3.1 28.8
2002-12-03 12:41:13 51°16.551 2°36.476 335.7 3 3.6 28.8
2002-12-03 12:41:18 51°16.555 2°36.477 337 3 4.3 28.9
2002-12-03 12:41:22 51°16.559 2°36.477 338.8 3.1 4.9 29.2
2002-12-03 12:41:28 51°16.563 2°36.478 340.2 3.1 5.5 29.2
2002-12-03 12:41:33 51°16.568 2°36.479 342.2 3.2 6 29
2002-12-03 12:41:38 51°16.572 2°36.48 343.7 3.2 6.3 29
2002-12-03 12:41:42 51°16.575 2°36.481 345.3 3.2 8 28.7
2002-12-03 12:41:48 51°16.581 2°36.482 347 3.2 9.6 28.8
2002-12-03 12:41:53 51°16.585 2°36.484 348.7 3.2 10.3 29.2
2002-12-03 12:41:58 51°16.59 2°36.485 350.3 3.2 11.1 29.3
2002-12-03 12:42:02 51°16.593 2°36.486 352.2 3.2 12.6 29.4
2002-12-03 12:42:06 51°16.597 2°36.488 353.7 3.3 12.6 29.1
2002-12-03 12:42:13 51°16.603 2°36.49 355.5 3.3 13.3 28.8
2002-12-03 12:42:18 51°16.608 2°36.492 357 3.3 14.3 28.8
2002-12-03 12:42:22 51°16.611 2°36.494 358.7 3.3 15.2 28.8
2002-12-03 12:42:28 51°16.616 2°36.496 0.5 3.3 16.8 27.9
2002-12-03 12:42:33 51°16.62 2°36.499 2.2 3.3 17.9 28.5
2002-12-03 12:42:38 51°16.625 2°36.501 3.8 3.3 18.3 28.2
2002-12-03 12:42:42 51°16.628 2°36.503 5.7 3.3 19.5 28.6
2002-12-03 12:42:48 51°16.633 2°36.506 7.2 3.3 21.2 28.3
2002-12-03 12:42:53 51°16.638 2°36.509 8.5 3.3 20.8 28.2
2002-12-03 12:42:58 51°16.642 2°36.512 10 3.3 22.1 28.2
2002-12-03 12:43:02 51°16.645 2°36.514 11.5 3.3 22.5 28.2
2002-12-03 12:43:08 51°16.65 2°36.518 12.8 3.3 22.9 28.3
2002-12-03 12:43:13 51°16.655 2°36.521 14.2 3.3 24.1 28.2
2002-12-03 12:43:18 51°16.659 2°36.524 15.3 3.3 25.4 28.4
2002-12-03 12:43:22 51°16.662 2°36.526 16.8 3.3 25.4 27.9